createdAt,value
2019-03-15T10:32:55.141Z,0.00
2019-03-15T10:32:56.869Z,0.00
2019-03-15T10:32:58.878Z,7.00
2019-03-15T10:33:00.904Z,0.00
2019-03-15T10:33:02.874Z,11.00
2019-03-15T10:33:04.872Z,19.00
2019-03-15T10:33:06.877Z,27.00
2019-03-15T10:33:09.949Z,27.00
2019-03-15T10:33:11.873Z,20.00
2019-03-15T10:33:13.864Z,22.00
2019-03-15T10:33:16.892Z,38.00
2019-03-15T10:33:18.886Z,22.00
2019-03-15T10:33:20.888Z,20.00
2019-03-15T10:33:23.893Z,33.00
2019-03-15T10:33:25.904Z,25.00
2019-03-15T10:33:27.886Z,28.00
2019-03-15T10:33:29.875Z,25.00
2019-03-15T10:33:32.874Z,15.00
2019-03-15T10:33:34.878Z,15.00
2019-03-15T10:33:49.580Z,14.00
2019-03-15T10:33:50.200Z,226.00
2019-03-15T10:33:52.866Z,91.00
2019-03-15T10:33:54.879Z,62.00
2019-03-15T10:33:56.950Z,52.00
2019-03-15T10:33:58.871Z,46.00
2019-03-15T10:34:00.930Z,42.00
2019-03-15T10:34:05.682Z,37.00
2019-03-15T10:34:07.894Z,33.00
2019-03-15T10:34:09.867Z,33.00
2019-03-15T10:34:11.880Z,32.00
2019-03-15T10:34:13.890Z,27.00
2019-03-15T10:34:15.880Z,22.00
2019-03-15T10:34:18.874Z,20.00
2019-03-15T10:34:20.869Z,24.00
2019-03-15T10:34:22.866Z,25.00
2019-03-15T10:34:25.888Z,32.00
2019-03-15T10:34:27.884Z,20.00
2019-03-15T10:34:29.879Z,34.00
2019-03-15T10:34:31.869Z,26.00
2019-03-15T10:34:35.787Z,35.00
2019-03-15T10:34:37.946Z,27.00
2019-03-15T10:34:39.871Z,33.00
2019-03-15T10:34:41.875Z,32.00
2019-03-15T10:34:43.869Z,39.00
2019-03-15T10:34:45.865Z,40.00
2019-03-15T10:35:52.139Z,0.00
2019-03-15T10:35:53.885Z,16.00
2019-03-15T10:35:55.900Z,10.00
2019-03-15T10:35:57.872Z,8.00
2019-03-15T10:36:20.137Z,0.00
2019-03-15T10:36:21.870Z,0.00
2019-03-15T10:36:23.862Z,11.00
2019-03-15T10:36:25.876Z,6.00
2019-03-15T10:36:27.885Z,12.00
2019-03-15T10:36:29.872Z,10.00
2019-03-15T10:36:34.537Z,4.00
2019-03-15T10:36:35.870Z,15.00
2019-03-15T10:36:37.901Z,21.00
2019-03-15T10:36:40.882Z,23.00
2019-03-15T10:36:42.880Z,21.00
2019-03-15T10:36:44.876Z,33.00
2019-03-15T10:36:47.871Z,41.00
2019-03-15T10:36:49.177Z,38.00
2019-03-15T10:36:51.873Z,47.00
2019-03-15T10:36:53.877Z,60.00
2019-03-15T10:36:56.867Z,56.00
2019-03-15T10:36:58.865Z,67.00
2019-03-15T10:37:00.884Z,71.00
2019-03-15T10:37:06.231Z,72.00
2019-03-15T10:37:07.896Z,82.00
2019-03-15T10:37:09.865Z,86.00
2019-03-15T10:37:11.882Z,84.00
2019-03-15T10:37:13.878Z,95.00
2019-03-15T10:37:15.875Z,98.00
2019-03-15T10:37:17.895Z,98.00
2019-03-15T10:37:19.868Z,99.00
2019-03-15T10:37:21.901Z,95.00
2019-03-15T10:37:23.863Z,92.00
2019-03-15T10:37:26.886Z,103.00
2019-03-15T10:37:28.863Z,145.00
2019-03-15T10:37:30.865Z,170.00
2019-03-15T10:37:32.874Z,164.00
2019-03-15T10:37:35.886Z,148.00
2019-03-15T10:37:37.887Z,138.00
2019-03-15T10:37:39.886Z,127.00
2019-03-15T10:37:42.885Z,133.00
2019-03-15T10:37:44.884Z,123.00
2019-03-15T10:37:46.888Z,124.00
2019-03-15T10:37:49.877Z,113.00
2019-03-15T10:37:51.892Z,106.00
2019-03-15T10:37:53.867Z,114.00
2019-03-15T10:37:55.906Z,114.00
2019-03-15T10:37:58.882Z,118.00
2019-03-15T10:38:00.897Z,118.00
2019-03-15T10:38:02.876Z,125.00
2019-03-15T10:38:05.902Z,112.00
2019-03-15T10:38:07.878Z,121.00
2019-03-15T10:38:09.886Z,132.00
2019-03-15T10:38:12.863Z,120.00
2019-03-15T10:38:16.718Z,119.00
2019-03-15T10:38:18.885Z,119.00
2019-03-15T10:38:20.873Z,119.00
2019-03-15T10:38:22.881Z,125.00
2019-03-15T10:38:24.862Z,123.00
2019-03-15T10:38:26.876Z,126.00
2019-03-15T10:38:28.884Z,124.00
2019-03-15T10:38:30.885Z,131.00
2019-03-15T10:38:32.885Z,133.00
2019-03-15T10:38:34.879Z,130.00
2019-03-15T10:38:37.878Z,135.00
2019-03-15T10:38:39.874Z,147.00
2019-03-15T10:38:41.872Z,139.00
2019-03-15T10:38:44.868Z,148.00
2019-03-15T10:38:46.890Z,148.00
2019-03-15T10:38:48.880Z,152.00
2019-03-15T10:38:51.877Z,155.00
2019-03-15T10:38:53.873Z,157.00
2019-03-15T10:38:55.871Z,148.00
2019-03-15T10:38:57.866Z,158.00
2019-03-15T10:39:00.864Z,152.00
2019-03-15T10:39:02.894Z,156.00
2019-03-15T10:39:04.887Z,176.00
2019-03-15T10:39:07.887Z,176.00
2019-03-15T10:39:09.885Z,245.00
2019-03-15T10:39:11.879Z,258.00
2019-03-15T10:39:14.883Z,245.00
2019-03-15T10:39:16.898Z,239.00
2019-03-15T10:39:18.874Z,225.00
2019-03-15T10:39:20.879Z,201.00
2019-03-15T10:39:23.870Z,194.00
2019-03-15T10:39:25.868Z,188.00
2019-03-15T10:39:27.873Z,210.00
2019-03-15T10:39:30.908Z,325.00
2019-03-15T10:39:32.921Z,388.00
2019-03-15T10:39:34.892Z,344.00
2019-03-15T10:39:37.958Z,322.00
2019-03-15T10:39:39.190Z,300.00
2019-03-15T10:39:41.881Z,293.00
2019-03-15T10:39:43.895Z,267.00
2019-03-15T10:39:46.876Z,231.00
2019-03-15T10:39:48.872Z,214.00
2019-03-15T10:39:50.865Z,205.00
2019-03-15T10:39:53.884Z,206.00
2019-03-15T10:39:55.886Z,233.00
2019-03-15T10:39:57.888Z,398.00
2019-03-15T10:40:00.612Z,376.00
2019-03-15T10:40:02.892Z,326.00
2019-03-15T10:40:04.883Z,297.00
2019-03-15T10:40:06.884Z,264.00
2019-03-15T10:40:09.893Z,249.00
2019-03-15T10:40:11.893Z,231.00
2019-03-15T10:40:13.887Z,239.00
2019-03-15T10:40:16.866Z,230.00
2019-03-15T10:40:18.864Z,225.00
2019-03-15T10:40:20.895Z,233.00
2019-03-15T10:40:22.889Z,232.00
2019-03-15T10:40:25.977Z,225.00
2019-03-15T10:40:27.903Z,224.00
2019-03-15T10:40:29.890Z,211.00
2019-03-15T10:40:32.871Z,208.00
2019-03-15T10:40:34.869Z,211.00
2019-03-15T10:40:36.913Z,214.00
2019-03-15T10:40:39.901Z,219.00
2019-03-15T10:40:41.896Z,214.00
2019-03-15T10:40:43.905Z,214.00
2019-03-15T10:40:45.899Z,212.00
2019-03-15T10:40:48.872Z,223.00
2019-03-15T10:40:50.866Z,283.00
2019-03-15T10:40:52.885Z,288.00
2019-03-15T10:40:55.896Z,293.00
2019-03-15T10:41:01.055Z,264.00
2019-03-15T10:41:02.885Z,251.00
2019-03-15T10:41:04.886Z,394.00
2019-03-15T10:41:06.871Z,514.00
2019-03-15T10:41:08.875Z,525.00
2019-03-15T10:41:11.869Z,500.00
2019-03-15T10:41:13.884Z,425.00
2019-03-15T10:41:15.885Z,391.00
2019-03-15T10:41:18.884Z,372.00
2019-03-15T10:41:20.884Z,354.00
2019-03-15T10:41:22.878Z,338.00
2019-03-15T10:41:24.876Z,333.00
2019-03-15T10:41:27.884Z,339.00
2019-03-15T10:41:29.875Z,324.00
2019-03-15T10:41:31.863Z,347.00
2019-03-15T10:41:38.097Z,402.00
2019-03-15T10:41:58.112Z,0.00
2019-03-15T10:41:59.886Z,0.00
2019-03-15T10:42:01.902Z,7.00
2019-03-15T10:42:04.897Z,0.00
2019-03-15T10:42:06.906Z,13.00
2019-03-15T10:42:08.948Z,6.00
2019-03-15T10:42:11.885Z,12.00
2019-03-15T10:42:13.888Z,4.00
2019-03-15T10:42:15.895Z,59.00
2019-03-15T10:42:17.883Z,123.00
2019-03-15T10:42:20.912Z,215.00
2019-03-15T10:42:22.928Z,213.00
2019-03-15T10:42:24.895Z,180.00
2019-03-15T10:42:27.976Z,122.00
2019-03-15T10:42:29.891Z,107.00
2019-03-15T10:42:31.873Z,93.00
2019-03-15T10:42:34.871Z,68.00
2019-03-15T10:42:36.886Z,47.00
2019-03-15T10:42:38.881Z,37.00
2019-03-15T10:42:40.891Z,23.00
2019-03-15T10:42:43.879Z,19.00
2019-03-15T10:42:45.890Z,10.00
2019-03-15T10:42:47.900Z,11.00
2019-03-15T10:42:50.896Z,11.00
2019-03-15T10:42:55.558Z,24.00
2019-03-15T10:42:57.874Z,25.00
2019-03-15T10:43:00.071Z,16.00
2019-03-15T10:43:01.874Z,4.00
2019-03-15T10:43:03.891Z,7.00
2019-03-15T10:43:06.888Z,6.00
2019-03-15T10:43:08.879Z,0.00
2019-03-15T10:43:10.880Z,3.00
2019-03-15T10:43:13.878Z,4.00
2019-03-15T10:43:15.943Z,26.00
2019-03-15T10:43:17.951Z,17.00
2019-03-15T10:43:19.891Z,12.00
2019-03-15T10:43:22.937Z,20.00
2019-03-15T10:43:24.884Z,15.00
2019-03-15T10:43:26.884Z,21.00
2019-03-15T10:43:30.027Z,24.00
2019-03-15T10:43:31.921Z,20.00
2019-03-15T10:43:33.879Z,30.00
2019-03-15T10:43:36.897Z,36.00
2019-03-15T10:43:38.898Z,27.00
2019-03-15T10:43:40.882Z,29.00
2019-03-15T10:43:42.886Z,24.00
2019-03-15T10:43:45.885Z,33.00
2019-03-15T10:43:47.883Z,43.00
2019-03-15T10:43:49.880Z,52.00
2019-03-15T10:43:52.875Z,35.00
2019-03-15T10:43:54.879Z,33.00
2019-03-15T10:43:56.874Z,24.00
2019-03-15T10:43:59.882Z,23.00
2019-03-15T10:44:04.044Z,19.00
2019-03-15T10:44:06.889Z,13.00
2019-03-15T10:44:08.880Z,10.00
2019-03-15T10:44:10.891Z,3.00
2019-03-15T10:44:12.886Z,18.00
2019-03-15T10:44:15.869Z,45.00
2019-03-15T10:44:17.888Z,45.00
2019-03-15T10:44:19.890Z,66.00
2019-03-15T10:44:22.872Z,83.00
2019-03-15T10:44:24.886Z,98.00
2019-03-15T10:44:26.891Z,103.00
2019-03-15T10:44:28.899Z,115.00
2019-03-15T10:44:31.896Z,129.00
2019-03-15T10:44:33.886Z,156.00
2019-03-15T10:44:35.892Z,165.00
2019-03-15T10:44:38.894Z,178.00
2019-03-15T10:44:40.886Z,187.00
2019-03-15T10:44:42.888Z,189.00
2019-03-15T10:44:45.885Z,178.00
2019-03-15T10:44:47.665Z,176.00
2019-03-15T10:44:49.494Z,172.00
2019-03-15T10:44:51.767Z,170.00
2019-03-15T10:44:54.881Z,173.00
2019-03-15T10:44:56.881Z,164.00
2019-03-15T10:44:58.896Z,160.00
2019-03-15T10:45:01.878Z,158.00
2019-03-15T10:45:03.874Z,161.00
2019-03-15T10:45:05.878Z,153.00
2019-03-15T10:45:07.888Z,127.00
2019-03-15T10:45:10.891Z,121.00
2019-03-15T10:45:12.889Z,123.00
2019-03-15T10:45:14.884Z,128.00
2019-03-15T10:45:17.886Z,146.00
2019-03-15T10:45:19.895Z,163.00
2019-03-15T10:45:21.879Z,162.00
2019-03-15T10:45:24.879Z,169.00
2019-03-15T10:45:26.871Z,172.00
2019-03-15T10:45:28.874Z,186.00
2019-03-15T10:45:30.873Z,181.00
2019-03-15T10:45:33.871Z,190.00
2019-03-15T10:45:35.870Z,195.00
2019-03-15T10:45:37.897Z,193.00
2019-03-15T10:45:40.886Z,204.00
2019-03-15T10:45:42.892Z,204.00
2019-03-15T10:45:44.889Z,200.00
2019-03-15T10:45:47.875Z,199.00
2019-03-15T10:45:49.866Z,204.00
2019-03-15T10:45:51.882Z,202.00
2019-03-15T10:45:53.867Z,202.00
2019-03-15T10:45:56.872Z,202.00
2019-03-15T10:45:58.868Z,201.00
2019-03-15T10:46:00.883Z,215.00
2019-03-15T10:46:06.093Z,209.00
2019-03-15T10:46:08.892Z,194.00
2019-03-15T10:46:10.889Z,192.00
2019-03-15T10:46:12.878Z,206.00
2019-03-15T10:46:14.879Z,200.00
2019-03-15T10:46:16.878Z,200.00
2019-03-15T10:46:19.891Z,204.00
2019-03-15T10:46:21.867Z,204.00
2019-03-15T10:46:23.871Z,208.00
2019-03-15T10:46:26.870Z,199.00
2019-03-15T10:46:28.883Z,194.00
2019-03-15T10:46:30.872Z,199.00
2019-03-15T10:46:32.893Z,213.00
2019-03-15T10:46:35.891Z,208.00
2019-03-15T10:46:37.953Z,210.00
2019-03-15T10:46:40.649Z,224.00
2019-03-15T10:46:42.930Z,226.00
2019-03-15T10:46:44.895Z,226.00
2019-03-15T10:46:46.886Z,226.00
2019-03-15T10:46:49.872Z,228.00
2019-03-15T10:46:51.876Z,233.00
2019-03-15T10:46:53.879Z,211.00
2019-03-15T10:46:56.885Z,199.00
2019-03-15T10:46:58.883Z,190.00
2019-03-15T10:47:00.900Z,262.00
2019-03-15T10:47:02.872Z,268.00
2019-03-15T10:47:05.910Z,260.00
2019-03-15T10:47:07.881Z,212.00
2019-03-15T10:47:09.932Z,185.00
2019-03-15T10:47:12.903Z,158.00
2019-03-15T10:47:14.887Z,128.00
2019-03-15T10:47:16.886Z,132.00
2019-03-15T10:47:18.887Z,192.00
2019-03-15T10:47:21.900Z,266.00
2019-03-15T10:47:23.890Z,264.00
2019-03-15T10:47:25.883Z,207.00
2019-03-15T10:47:29.008Z,208.00
2019-03-15T10:47:30.888Z,186.00
2019-03-15T10:47:32.980Z,184.00
2019-03-15T10:47:35.877Z,154.00
2019-03-15T10:47:37.606Z,116.00
2019-03-15T10:47:42.155Z,108.00
2019-03-15T10:47:44.878Z,88.00
2019-03-15T10:47:46.878Z,84.00
2019-03-15T10:47:48.869Z,77.00
2019-03-15T10:47:51.875Z,67.00
2019-03-15T10:47:53.867Z,61.00
2019-03-15T10:47:55.867Z,63.00
2019-03-15T10:47:57.889Z,59.00
2019-03-15T10:48:00.888Z,51.00
2019-03-15T10:48:02.889Z,58.00
2019-03-15T10:48:07.936Z,69.00
2019-03-15T10:48:09.895Z,61.00
2019-03-15T10:48:24.618Z,64.00
2019-03-15T10:48:25.111Z,55.00
2019-03-15T10:48:27.886Z,58.00
2019-03-15T10:48:29.890Z,67.00
2019-03-15T10:48:31.889Z,52.00
2019-03-15T10:48:33.883Z,62.00
2019-03-15T10:48:35.881Z,66.00
2019-03-15T10:48:38.540Z,58.00
2019-03-15T10:48:41.541Z,54.00
2019-03-15T10:48:44.617Z,62.00
2019-03-15T10:48:46.887Z,60.00
2019-03-15T10:48:48.883Z,58.00
2019-03-15T10:48:50.918Z,62.00
2019-03-15T10:48:53.869Z,82.00
2019-03-15T10:48:56.541Z,120.00
2019-03-15T10:48:59.544Z,136.00
2019-03-15T10:53:55.176Z,0.00
2019-03-15T10:53:56.891Z,0.00
2019-03-15T10:53:58.877Z,0.00
2019-03-15T10:54:00.876Z,0.00
2019-03-15T10:54:02.870Z,0.00
2019-03-15T10:54:05.890Z,0.00
2019-03-15T10:54:07.892Z,0.00
2019-03-15T10:54:09.886Z,0.00
2019-03-15T10:54:12.901Z,0.00
2019-03-15T10:54:14.878Z,2.00
2019-03-15T10:54:16.893Z,0.00
2019-03-15T10:54:18.866Z,0.00
2019-03-15T10:54:21.882Z,0.00
2019-03-15T10:54:23.977Z,3.00
2019-03-15T10:54:25.902Z,4.00
2019-03-15T10:54:28.886Z,0.00
2019-03-15T10:54:30.890Z,10.00
2019-03-15T10:54:32.921Z,17.00
2019-03-15T10:54:35.860Z,61.00
2019-03-15T10:54:37.199Z,76.00
2019-03-15T10:54:39.873Z,144.00
2019-03-15T10:54:41.902Z,152.00
2019-03-15T10:54:44.883Z,140.00
2019-03-15T10:54:46.883Z,123.00
2019-03-15T10:54:48.891Z,104.00
2019-03-15T10:54:51.871Z,94.00
2019-03-15T10:54:53.909Z,87.00
2019-03-15T10:54:55.870Z,94.00
2019-03-15T10:54:57.957Z,90.00
2019-03-15T10:55:00.883Z,89.00
2019-03-15T10:55:02.877Z,85.00
2019-03-15T10:55:04.877Z,93.00
2019-03-15T10:55:07.871Z,88.00
2019-03-15T10:55:09.898Z,97.00
2019-03-15T10:55:11.901Z,136.00
2019-03-15T10:55:14.886Z,196.00
2019-03-15T10:55:20.351Z,210.00
2019-03-15T10:55:21.875Z,168.00
2019-03-15T10:55:23.917Z,158.00
2019-03-15T10:55:25.874Z,152.00
2019-03-15T10:55:27.866Z,150.00
2019-03-15T10:55:30.899Z,153.00
2019-03-15T10:55:32.886Z,142.00
2019-03-15T10:55:34.935Z,142.00
2019-03-15T10:55:37.881Z,149.00
2019-03-15T10:55:39.175Z,161.00
2019-03-15T10:55:41.890Z,159.00
2019-03-15T10:55:43.876Z,159.00
2019-03-15T10:55:59.260Z,175.00
2019-03-15T10:56:00.056Z,176.00
2019-03-15T10:56:02.877Z,179.00
2019-03-15T10:56:04.907Z,183.00
2019-03-15T10:56:06.870Z,198.00
2019-03-15T10:56:08.869Z,209.00
2019-03-15T10:56:10.891Z,211.00
2019-03-15T10:56:12.882Z,199.00
2019-03-15T10:56:14.982Z,188.00
2019-03-15T10:56:16.884Z,180.00
2019-03-15T10:56:18.910Z,177.00
2019-03-15T10:56:41.116Z,0.00
2019-03-15T10:56:42.886Z,0.00
2019-03-15T10:56:44.867Z,0.00
2019-03-15T10:56:46.898Z,6.00
2019-03-15T10:56:48.874Z,9.00
2019-03-15T10:56:50.899Z,11.00
2019-03-15T10:56:52.867Z,26.00
2019-03-15T10:56:54.889Z,23.00
2019-03-15T10:56:56.892Z,22.00
2019-03-15T10:56:58.880Z,27.00
2019-03-15T10:57:01.902Z,45.00
2019-03-15T10:57:03.873Z,37.00
2019-03-15T10:57:05.865Z,38.00
2019-03-15T10:57:08.887Z,36.00
2019-03-15T10:57:10.874Z,43.00
2019-03-15T10:57:12.881Z,43.00
2019-03-15T10:57:14.889Z,36.00
2019-03-15T10:57:17.908Z,36.00
2019-03-15T10:57:19.990Z,40.00
2019-03-15T10:57:21.970Z,42.00
2019-03-15T10:57:24.897Z,41.00
2019-03-15T10:57:27.038Z,43.00
2019-03-15T10:57:28.915Z,43.00
2019-03-15T10:57:30.884Z,37.00
2019-03-15T10:57:33.867Z,42.00
2019-03-15T10:57:35.921Z,49.00
2019-03-15T10:57:37.896Z,75.00
2019-03-15T10:57:40.882Z,83.00
2019-03-15T10:57:42.880Z,87.00
2019-03-15T10:57:44.875Z,82.00
2019-03-15T10:57:47.880Z,81.00
2019-03-15T10:57:49.954Z,87.00
2019-03-15T10:57:51.879Z,78.00
2019-03-15T10:57:53.871Z,83.00
2019-03-15T10:57:56.878Z,88.00
2019-03-15T10:57:58.873Z,91.00
2019-03-15T10:58:00.874Z,98.00
2019-03-15T10:58:03.870Z,179.00
2019-03-15T10:58:05.906Z,194.00
2019-03-15T10:58:07.885Z,164.00
2019-03-15T10:58:10.910Z,139.00
2019-03-15T10:58:12.881Z,123.00
2019-03-15T10:58:14.879Z,117.00
2019-03-15T10:58:16.866Z,116.00
2019-03-15T10:58:19.865Z,101.00
2019-03-15T10:58:21.885Z,98.00
2019-03-15T10:58:23.887Z,100.00
2019-03-15T10:58:26.883Z,88.00
2019-03-15T10:58:28.886Z,84.00
2019-03-15T10:58:30.874Z,79.00
2019-03-15T10:58:33.854Z,85.00
2019-03-15T10:58:35.163Z,85.00
2019-03-15T10:58:37.893Z,85.00
2019-03-15T10:58:39.880Z,89.00
2019-03-15T10:58:42.889Z,87.00
2019-03-15T10:58:44.874Z,87.00
2019-03-15T10:58:46.876Z,90.00
2019-03-15T10:58:49.883Z,94.00
2019-03-15T10:58:51.886Z,96.00
2019-03-15T10:58:53.883Z,95.00
2019-03-15T10:58:55.887Z,93.00
2019-03-15T10:58:58.883Z,94.00
2019-03-15T10:59:00.879Z,90.00
2019-03-15T10:59:02.869Z,86.00
2019-03-15T10:59:05.887Z,90.00
2019-03-15T10:59:07.896Z,96.00
2019-03-15T10:59:10.531Z,106.00
2019-03-15T10:59:13.538Z,96.00
2019-03-15T10:59:14.884Z,103.00
2019-03-15T10:59:16.874Z,107.00
2019-03-15T10:59:19.532Z,164.00
2019-03-15T10:59:22.553Z,156.00
2019-03-15T10:59:23.876Z,139.00
2019-03-15T10:59:25.884Z,128.00
2019-03-15T10:59:28.883Z,136.00
2019-03-15T10:59:30.877Z,133.00
2019-03-15T10:59:32.882Z,127.00
2019-03-15T10:59:35.859Z,128.00
2019-03-15T10:59:37.168Z,128.00
2019-03-15T10:59:40.534Z,137.00
2019-03-15T10:59:41.867Z,129.00
2019-03-15T10:59:44.881Z,125.00
2019-03-15T10:59:46.878Z,133.00
2019-03-15T10:59:49.555Z,121.00
2019-03-15T10:59:51.935Z,124.00
2019-03-15T10:59:53.886Z,133.00
2019-03-15T10:59:55.882Z,140.00
2019-03-15T10:59:57.875Z,158.00
2019-03-15T11:00:00.871Z,159.00
2019-03-15T11:00:02.889Z,154.00
2019-03-15T11:00:04.892Z,151.00
2019-03-15T11:00:07.893Z,142.00
2019-03-15T11:00:09.888Z,132.00
2019-03-15T11:00:11.875Z,131.00
2019-03-15T11:00:14.871Z,140.00
2019-03-15T11:00:16.885Z,165.00
2019-03-15T11:00:18.884Z,156.00
2019-03-15T11:00:20.883Z,147.00
2019-03-15T11:00:23.887Z,154.00
2019-03-15T11:00:25.873Z,147.00
2019-03-15T11:00:27.869Z,143.00
2019-03-15T11:00:30.888Z,145.00
2019-03-15T11:00:32.917Z,158.00
2019-03-15T11:00:34.898Z,153.00
2019-03-15T11:00:36.878Z,143.00
2019-03-15T11:00:39.870Z,139.00
2019-03-15T11:00:41.889Z,147.00
2019-03-15T11:00:43.884Z,143.00
2019-03-15T11:00:46.879Z,139.00
2019-03-15T11:00:48.875Z,145.00
2019-03-15T11:00:50.870Z,135.00
2019-03-15T11:00:53.893Z,137.00
2019-03-15T11:00:55.886Z,129.00
2019-03-15T11:00:57.882Z,131.00
2019-03-15T11:00:59.876Z,135.00
2019-03-15T11:01:02.870Z,135.00
2019-03-15T11:01:04.869Z,135.00
2019-03-15T11:01:06.890Z,194.00
2019-03-15T11:01:09.882Z,194.00
2019-03-15T11:01:11.881Z,168.00
2019-03-15T11:01:13.882Z,147.00
2019-03-15T11:01:16.866Z,138.00
2019-03-15T11:01:18.207Z,126.00
2019-03-15T11:01:20.887Z,111.00
2019-03-15T11:01:22.892Z,220.00
2019-03-15T11:01:25.881Z,355.00
2019-03-15T11:01:27.879Z,380.00
2019-03-15T11:01:29.870Z,316.00
2019-03-15T11:01:32.865Z,240.00
2019-03-15T11:01:34.895Z,202.00
2019-03-15T11:01:36.883Z,176.00
2019-03-15T11:01:38.917Z,159.00
2019-03-15T11:01:41.973Z,152.00
2019-03-15T11:01:43.872Z,144.00
2019-03-15T11:01:45.869Z,137.00
2019-03-15T11:01:48.867Z,131.00
2019-03-15T11:01:50.890Z,123.00
2019-03-15T11:01:52.885Z,129.00
2019-03-15T11:01:55.883Z,125.00
2019-03-15T11:01:57.877Z,111.00
2019-03-15T11:01:59.876Z,150.00
2019-03-15T11:02:01.871Z,225.00
2019-03-15T11:02:04.897Z,192.00
2019-03-15T11:02:06.902Z,155.00
2019-03-15T11:02:08.950Z,136.00
2019-03-15T11:02:11.882Z,126.00
2019-03-15T11:02:13.884Z,117.00
2019-03-15T11:02:15.877Z,128.00
2019-03-15T11:02:18.862Z,99.00
2019-03-15T11:02:20.175Z,108.00
2019-03-15T11:02:22.532Z,109.00
2019-03-15T11:02:24.894Z,179.00
